Saturday, September 21, 2019, 1:31 PM EDT
Back to Local

KIPT, Williamsport-lycoming County

Location: Montoursville, PA, United States Lat: 41.25
Local Time: 1:31 PM EDT (17:31 GMT) Lon: -76.917
Time Zone: US/Eastern Elev: 528 ft

Show me the last for .
Show Decoded

2019-09-21 12:54 METAR KIPT 211654Z VRB03KT 10SM CLR 24/14 A3022 RMK AO2 SLP230 T02390139 =
2019-09-21 11:54 METAR KIPT 211554Z 00000KT 10SM CLR 19/13 A3024 RMK AO2 SLP238 T01940133 =
2019-09-21 10:54 METAR KIPT 211454Z 00000KT 10SM SCT005 15/13 A3026 RMK AO2 SLP246 T01500128
                 50000 =
2019-09-21 10:49 METAR KIPT 211449Z 24003KT 10SM SCT005 14/13 A3026 RMK AO2 =
2019-09-21 09:54 METAR KIPT 211354Z VRB04KT 3SM BR OVC002 13/12 A3028 RMK AO2 SLP252 T01280117 =
2019-09-21 09:35 METAR KIPT 211335Z 00000KT 3SM BR OVC002 13/12 A3028 RMK AO2 T01280117 =
2019-09-21 09:10 METAR KIPT 211310Z 30004KT 1 3/4SM BR OVC002 12/12 A3027 RMK AO2 VIS 1 1/4V5
                 T01220117 =
2019-09-21 08:54 METAR KIPT 211254Z 30004KT 5SM BR OVC002 12/11 A3027 RMK AO2 SLP251 T01220111 =
2019-09-21 08:48 METAR KIPT 211248Z 30005KT 3SM BR OVC002 12/11 A3027 RMK AO2 =
2019-09-21 08:37 METAR KIPT 211237Z 28004KT 1 1/4SM BR OVC002 12/12 A3027 RMK AO2 T01220117 =
2019-09-21 08:10 METAR KIPT 211210Z 31003KT 1/2SM FG VV002 12/11 A3026 RMK AO2 T01170111 =
2019-09-21 07:54 METAR KIPT 211154Z 30004KT 1/4SM FG VV002 12/11 A3026 RMK AO2 SLP246 T01170111
                 10122 20111 53007 =
2019-09-21 07:17 METAR KIPT 211117Z 30004KT 1/4SM FG VV002 12/11 A3025 RMK AO2 T01170111 =
2019-09-21 06:54 METAR KIPT 211054Z 30004KT 1/2SM FG VV002 12/11 A3025 RMK AO2 SLP242 T01170111 =
2019-09-21 06:37 METAR KIPT 211037Z 32003KT 3/4SM BR VV002 12/11 A3025 RMK AO2 T01170111 =
2019-09-21 05:54 METAR KIPT 210954Z AUTO 33003KT 1SM BR VV003 12/11 A3025 RMK AO2 SLP241
                 T01170111 =
2019-09-21 05:19 METAR KIPT 210919Z AUTO 00000KT 1 1/2SM BR OVC002 12/11 A3024 RMK AO2 T01220111
                 =
2019-09-21 05:12 METAR KIPT 210912Z AUTO 33003KT 2SM BR OVC002 12/12 A3024 RMK AO2 VIS 1 1/4V3
                 T01220117 =
2019-09-21 04:54 METAR KIPT 210854Z AUTO 00000KT 3SM BR OVC002 12/11 A3024 RMK AO2 SLP237
                 T01220111 53002 =
2019-09-21 03:54 METAR KIPT 210754Z AUTO 00000KT 10SM OVC003 12/11 A3022 RMK AO2 SLP232 T01170106
                 TSNO =
2019-09-21 03:27 METAR KIPT 210727Z AUTO 31003KT 10SM BKN004 12/10 A3023 RMK AO2 T01170100 =
2019-09-21 02:54 METAR KIPT 210654Z AUTO 30003KT 10SM FEW005 12/11 A3023 RMK AO2 SLP236 T01170106
                 =
2019-09-21 01:54 METAR KIPT 210554Z AUTO 00000KT 10SM CLR 12/11 A3023 RMK AO2 SLP235 T01220106
                 10183 20122 50004 =
2019-09-21 00:54 METAR KIPT 210454Z AUTO 30004KT 10SM CLR 12/11 A3023 RMK AO2 SLP236 T01220111
                 402440067 =
2019-09-20 23:54 METAR KIPT 210354Z AUTO 26003KT 10SM CLR 13/12 A3022 RMK AO2 SLP233 T01330117 =
2019-09-20 22:54 METAR KIPT 210254Z AUTO 34003KT 10SM CLR 14/12 A3022 RMK AO2 SLP232 T01390117
                 51009 =
2019-09-20 21:54 METAR KIPT 210154Z 00000KT 10SM CLR 16/13 A3020 RMK AO2 SLP229 T01560128 =
2019-09-20 20:54 METAR KIPT 210054Z 00000KT 10SM CLR 16/14 A3020 RMK AO2 SLP229 T01560139 =
2019-09-20 19:54 METAR KIPT 202354Z 00000KT 10SM CLR 17/14 A3019 RMK AO2 SLP224 T01670139 10244
                 20167 53010 =
2019-09-20 18:54 METAR KIPT 202254Z 00000KT 10SM CLR 20/15 A3018 RMK AO2 SLP219 T02000150 =
2019-09-20 17:54 METAR KIPT 202154Z 13004KT 10SM CLR 23/14 A3017 RMK AO2 SLP215 T02330144 =
2019-09-20 16:54 METAR KIPT 202054Z 12006KT 10SM CLR 24/12 A3016 RMK AO2 SLP212 T02440122 56018 =
2019-09-20 15:54 METAR KIPT 201954Z 13004KT 10SM CLR 24/12 A3017 RMK AO2 SLP216 T02440117 =
2019-09-20 14:54 METAR KIPT 201854Z 19004KT 10SM CLR 24/12 A3019 RMK AO2 SLP222 T02390117 =
2019-09-20 13:54 METAR KIPT 201754Z VRB03KT 10SM CLR 22/11 A3021 RMK AO2 SLP231 T02170106 10222
                 20078 58025 =

Support USWX by starting your Amazon purchase here.